createdAt,value
2023-02-27T00:03:58.728Z,99878.91
2023-02-27T00:09:01.732Z,99873.88
2023-02-27T00:14:04.658Z,99880.34
2023-02-27T00:19:08.972Z,99877.78
2023-02-27T00:24:12.154Z,99881.16
2023-02-27T00:29:15.058Z,99880.31
2023-02-27T00:34:19.319Z,99877.84
2023-02-27T00:39:22.291Z,99878.50
2023-02-27T00:44:25.206Z,99883.94
2023-02-27T00:49:29.426Z,99878.50
2023-02-27T00:54:32.377Z,99888.78
2023-02-27T00:59:35.322Z,99880.66
2023-02-27T01:04:39.632Z,99876.19
2023-02-27T01:09:43.348Z,99879.03
2023-02-27T01:14:46.320Z,99875.69
2023-02-27T01:19:50.604Z,99876.41
2023-02-27T01:24:53.588Z,99868.63
2023-02-27T01:29:56.540Z,99869.31
2023-02-27T01:35:00.806Z,99870.38
2023-02-27T01:40:05.040Z,99878.78
2023-02-27T01:45:28.519Z,99879.69
2023-02-27T01:50:34.706Z,99888.41
2023-02-27T01:55:40.225Z,99876.91
2023-02-27T02:00:43.473Z,99885.94
2023-02-27T02:05:48.670Z,99886.75
2023-02-27T02:10:53.046Z,99887.41
2023-02-27T02:16:20.154Z,99896.44
2023-02-27T02:21:54.462Z,99892.22
2023-02-27T02:27:10.774Z,99902.66
2023-02-27T02:32:43.656Z,99897.19
2023-02-27T02:38:30.230Z,99902.84
2023-02-27T02:43:42.391Z,99912.13
2023-02-27T02:48:50.358Z,99914.78
2023-02-27T02:54:01.041Z,99907.53
2023-02-27T02:59:10.899Z,99920.13
2023-02-27T03:04:19.700Z,99919.00
2023-02-27T03:09:30.156Z,99925.97
2023-02-27T03:14:40.447Z,99925.00
2023-02-27T03:19:51.405Z,99925.19
2023-02-27T03:24:58.342Z,99921.38
2023-02-27T03:30:08.933Z,99918.00
2023-02-27T03:35:12.833Z,99921.84
2023-02-27T03:40:26.672Z,99939.31
2023-02-27T03:45:37.529Z,99936.03
2023-02-27T03:50:40.547Z,99935.13
2023-02-27T03:55:46.974Z,99943.03
2023-02-27T04:00:51.361Z,99938.91
2023-02-27T04:05:54.616Z,99937.91
2023-02-27T04:11:16.749Z,99934.16
2023-02-27T04:16:47.076Z,99943.63
2023-02-27T04:22:04.249Z,99938.69
2023-02-27T04:27:16.099Z,99951.84
2023-02-27T04:32:27.224Z,99952.75
2023-02-27T04:37:36.772Z,99952.00
2023-02-27T04:42:43.108Z,99959.75
2023-02-27T04:47:50.723Z,99960.69
2023-02-27T04:52:58.461Z,99949.03
2023-02-27T04:58:05.685Z,99963.44
2023-02-27T05:03:14.547Z,99956.88
2023-02-27T05:08:25.091Z,99968.88
2023-02-27T05:13:33.224Z,99970.41
2023-02-27T05:18:37.990Z,99983.81
2023-02-27T05:23:45.996Z,99978.97
2023-02-27T05:28:55.186Z,99996.22
2023-02-27T05:34:07.538Z,100004.31
2023-02-27T05:39:12.386Z,100007.09
2023-02-27T05:44:18.390Z,100002.97
2023-02-27T05:49:27.195Z,99998.66
2023-02-27T05:54:37.258Z,100008.53
2023-02-27T05:59:45.190Z,100009.63
2023-02-27T06:04:49.464Z,100024.53
2023-02-27T06:09:52.880Z,100023.63
2023-02-27T06:14:55.719Z,100042.03
2023-02-27T06:19:59.925Z,100032.09
2023-02-27T06:25:03.048Z,100031.66
2023-02-27T06:30:07.856Z,100038.19
2023-02-27T06:35:12.746Z,100039.50
2023-02-27T06:40:16.054Z,100051.91
2023-02-27T06:45:19.073Z,100050.13
2023-02-27T06:50:23.368Z,100052.44
2023-02-27T06:55:26.694Z,100047.88
2023-02-27T07:00:30.516Z,100049.31
2023-02-27T07:05:34.951Z,100057.38
2023-02-27T07:10:38.948Z,100049.03
2023-02-27T07:15:42.007Z,100048.13
2023-02-27T07:20:46.260Z,100052.41
2023-02-27T07:25:49.200Z,100048.81
2023-02-27T07:30:54.856Z,100053.28
2023-02-27T07:35:59.128Z,100056.91
2023-02-27T07:41:02.082Z,100053.16
2023-02-27T07:46:05.306Z,100054.69
2023-02-27T07:51:09.569Z,100051.34
2023-02-27T07:56:12.504Z,100050.72
2023-02-27T08:01:15.378Z,100061.84
2023-02-27T08:06:19.650Z,100067.03
2023-02-27T08:11:22.686Z,100069.00
2023-02-27T08:16:26.162Z,100080.03
2023-02-27T08:21:31.153Z,100082.13
2023-02-27T08:26:34.357Z,100088.00
2023-02-27T08:31:37.271Z,100095.22
2023-02-27T08:36:41.848Z,100092.53
2023-02-27T08:41:44.792Z,100099.53
2023-02-27T08:46:47.901Z,100104.97
2023-02-27T08:51:52.230Z,100106.75
2023-02-27T08:56:55.132Z,100107.81
2023-02-27T09:01:59.076Z,100110.41
2023-02-27T09:07:03.563Z,100112.81
2023-02-27T09:12:07.024Z,100123.78
2023-02-27T09:17:09.931Z,100124.97
2023-02-27T09:22:14.234Z,100119.94
2023-02-27T09:27:17.303Z,100119.44
2023-02-27T09:32:20.313Z,100123.34
2023-02-27T09:37:25.289Z,100128.50
2023-02-27T09:42:34.926Z,100133.59
2023-02-27T09:47:41.756Z,100131.44
2023-02-27T09:52:46.267Z,100140.22
2023-02-27T09:57:56.301Z,100132.25
2023-02-27T10:03:08.616Z,100135.56
2023-02-27T10:08:22.530Z,100136.16
2023-02-27T10:13:52.366Z,100143.34
2023-02-27T10:18:59.410Z,100142.53
2023-02-27T10:24:13.027Z,100147.84
2023-02-27T10:29:20.364Z,100156.22
2023-02-27T10:34:25.557Z,100152.09
2023-02-27T10:39:31.747Z,100150.53
2023-02-27T10:44:34.750Z,100155.66
2023-02-27T10:49:39.574Z,100151.88
2023-02-27T10:54:44.134Z,100146.56
2023-02-27T10:59:53.906Z,100149.22
2023-02-27T11:04:59.849Z,100147.44
2023-02-27T11:10:17.286Z,100145.38
2023-02-27T11:15:25.688Z,100134.34
2023-02-27T11:20:36.902Z,100130.38
2023-02-27T11:25:41.609Z,100135.41
2023-02-27T11:30:44.742Z,100130.91
2023-02-27T11:35:57.218Z,100130.38
2023-02-27T11:41:04.290Z,100127.91
2023-02-27T11:46:31.524Z,100127.13
2023-02-27T11:51:47.026Z,100121.06
2023-02-27T11:56:54.928Z,100122.41
2023-02-27T12:02:04.858Z,100104.78
2023-02-27T12:07:16.593Z,100111.38
2023-02-27T12:12:24.987Z,100102.03
2023-02-27T12:17:33.131Z,100103.88
2023-02-27T12:22:38.970Z,100100.41
2023-02-27T12:27:48.108Z,100105.72
2023-02-27T12:32:55.749Z,100096.94
2023-02-27T12:37:59.032Z,100110.97
2023-02-27T12:43:26.823Z,100102.13
2023-02-27T12:48:46.442Z,100097.28
2023-02-27T12:54:06.666Z,100095.50
2023-02-27T12:59:24.898Z,100093.44
2023-02-27T13:04:37.561Z,100094.00
2023-02-27T13:09:46.505Z,100100.75
2023-02-27T13:14:58.785Z,100101.53
2023-02-27T13:20:06.210Z,100103.22
2023-02-27T13:25:14.317Z,100097.25
2023-02-27T13:30:25.029Z,100099.13
2023-02-27T13:35:36.307Z,100097.13
2023-02-27T13:40:41.474Z,100090.75
2023-02-27T13:45:57.913Z,100087.34
2023-02-27T13:51:02.187Z,100093.91
2023-02-27T13:56:23.222Z,100099.44
2023-02-27T14:01:29.676Z,100097.47
2023-02-27T14:06:33.046Z,100101.59
2023-02-27T14:11:39.842Z,100102.41
2023-02-27T14:17:03.523Z,100107.88
2023-02-27T14:22:40.189Z,100108.38
2023-02-27T14:27:50.456Z,100103.88
2023-02-27T14:32:59.019Z,100101.75
2023-02-27T14:38:09.314Z,100101.00
2023-02-27T14:43:22.972Z,100112.78
2023-02-27T14:48:29.785Z,100110.97
2023-02-27T14:53:33.038Z,100116.41
2023-02-27T14:58:36.056Z,100116.88
2023-02-27T15:03:46.097Z,100113.31
2023-02-27T15:08:52.214Z,100125.69
2023-02-27T15:13:59.331Z,100125.44
2023-02-27T15:19:14.220Z,100134.81
2023-02-27T15:24:26.918Z,100131.22
2023-02-27T15:29:35.850Z,100129.31
2023-02-27T15:34:45.009Z,100140.09
2023-02-27T15:39:48.205Z,100147.19
2023-02-27T15:44:52.988Z,100147.56
2023-02-27T15:50:01.174Z,100158.78
2023-02-27T15:55:07.634Z,100174.25
2023-02-27T16:00:12.254Z,100184.63
2023-02-27T16:05:22.620Z,100179.25
2023-02-27T16:10:29.113Z,100180.31
2023-02-27T16:15:34.664Z,100179.31
2023-02-27T16:20:42.193Z,100188.06
2023-02-27T16:26:03.181Z,100189.50
2023-02-27T16:31:08.006Z,100193.97
2023-02-27T16:36:23.248Z,100201.59
2023-02-27T16:41:26.543Z,100198.34
2023-02-27T16:46:31.137Z,100206.38
2023-02-27T16:51:36.149Z,100212.94
2023-02-27T16:56:39.437Z,100212.25
2023-02-27T17:01:42.840Z,100214.78
2023-02-27T17:06:47.177Z,100219.69
2023-02-27T17:11:51.246Z,100216.06
2023-02-27T17:16:54.248Z,100235.00
2023-02-27T17:21:58.643Z,100233.66
2023-02-27T17:27:01.729Z,100236.47
2023-02-27T17:32:05.118Z,100236.00
2023-02-27T17:37:09.614Z,100237.94
2023-02-27T17:42:16.548Z,100239.25
2023-02-27T17:47:19.648Z,100230.25
2023-02-27T17:52:24.084Z,100240.06
2023-02-27T17:57:27.118Z,100248.19
2023-02-27T18:02:30.159Z,100255.09
2023-02-27T18:07:34.661Z,100258.03
2023-02-27T18:12:38.358Z,100249.59
2023-02-27T18:17:41.677Z,100250.06
2023-02-27T18:22:45.950Z,100248.97
2023-02-27T18:27:49.023Z,100251.81
2023-02-27T18:32:51.956Z,100245.81
2023-02-27T18:37:56.261Z,100249.91
2023-02-27T18:42:59.210Z,100243.09
2023-02-27T18:48:02.231Z,100245.00
2023-02-27T18:53:06.548Z,100252.75
2023-02-27T18:58:09.481Z,100255.34
2023-02-27T19:03:12.502Z,100253.69
2023-02-27T19:08:17.507Z,100258.66
2023-02-27T19:13:20.416Z,100255.72
2023-02-27T19:18:23.310Z,100272.06
2023-02-27T19:23:27.595Z,100271.63
2023-02-27T19:28:30.675Z,100268.09
2023-02-27T19:33:33.555Z,100264.81
2023-02-27T19:38:38.083Z,100260.56
2023-02-27T19:43:42.279Z,100269.28
2023-02-27T19:48:45.291Z,100273.03
2023-02-27T19:53:49.825Z,100272.09
2023-02-27T19:58:54.107Z,100277.25
2023-02-27T20:03:57.640Z,100276.56
2023-02-27T20:09:02.136Z,100283.84
2023-02-27T20:14:05.545Z,100288.63
2023-02-27T20:19:10.784Z,100285.03
2023-02-27T20:24:16.447Z,100286.88
2023-02-27T20:29:23.109Z,100280.31
2023-02-27T20:34:27.177Z,100291.13
2023-02-27T20:39:31.619Z,100282.19
2023-02-27T20:44:34.584Z,100284.19
2023-02-27T20:49:37.652Z,100290.16
2023-02-27T20:54:41.975Z,100291.69
2023-02-27T20:59:44.889Z,100285.56
2023-02-27T21:04:49.417Z,100279.13
2023-02-27T21:09:53.817Z,100285.25
2023-02-27T21:14:57.257Z,100286.66
2023-02-27T21:20:00.160Z,100299.00
2023-02-27T21:25:04.845Z,100286.28
2023-02-27T21:30:11.097Z,100294.19
2023-02-27T21:35:14.821Z,100297.31
2023-02-27T21:40:19.358Z,100299.56
2023-02-27T21:45:22.259Z,100296.28
2023-02-27T21:50:25.167Z,100287.22
2023-02-27T21:55:29.605Z,100285.34
2023-02-27T22:00:33.563Z,100294.19
2023-02-27T22:05:36.761Z,100295.44
2023-02-27T22:10:42.888Z,100294.28
2023-02-27T22:15:45.841Z,100304.94
2023-02-27T22:20:49.093Z,100296.88
2023-02-27T22:26:01.566Z,100308.34
2023-02-27T22:31:09.498Z,100311.06
2023-02-27T22:36:15.115Z,100311.91
2023-02-27T22:41:21.229Z,100300.25
2023-02-27T22:46:26.777Z,100305.44
2023-02-27T22:51:30.585Z,100303.78
2023-02-27T22:56:36.483Z,100305.44
2023-02-27T23:01:39.538Z,100299.66
2023-02-27T23:06:42.969Z,100305.91
2023-02-27T23:11:47.734Z,100300.63
2023-02-27T23:16:51.446Z,100295.56
2023-02-27T23:21:54.359Z,100295.34
2023-02-27T23:27:00.227Z,100309.41
2023-02-27T23:32:03.191Z,100309.66
2023-02-27T23:37:06.509Z,100310.59
2023-02-27T23:42:10.918Z,100315.50
2023-02-27T23:47:31.280Z,100319.50
2023-02-27T23:52:34.164Z,100316.44
2023-02-27T23:57:38.410Z,100322.56
